Time;durP1;ratioP1;P1;durP2;ratioP2;P2;SDS_P1;SDS_P2;PMS_P1;PMS_P2;Temp;Humidity;BMP_temperature;BMP_pressure;BME280_temperature;BME280_humidity;BME280_pressure;Samples;Min_cycle;Max_cycle;Signal;HPM_P1;HPM_P2
2023/09/11 00:01:29;;;;;;;13.35;9.18;;;25.50;72.20;;;;;;5010632;28;20089;-87
2023/09/11 00:03:54;;;;;;;13.50;9.40;;;25.50;72.40;;;;;;5015391;28;20104;-88
2023/09/11 00:06:20;;;;;;;10.48;8.15;;;25.40;72.70;;;;;;5004051;28;20051;-88
2023/09/11 00:08:46;;;;;;;15.13;9.40;;;25.40;72.50;;;;;;5014872;28;20033;-87
2023/09/11 00:11:11;;;;;;;16.98;11.52;;;25.40;72.80;;;;;;5005256;28;20025;-88
2023/09/11 00:13:37;;;;;;;15.05;10.02;;;25.40;72.80;;;;;;5012783;28;20076;-88
2023/09/11 00:16:02;;;;;;;11.38;8.88;;;25.30;72.90;;;;;;5008250;28;20034;-88
2023/09/11 00:18:28;;;;;;;12.23;9.90;;;25.30;72.80;;;;;;5010391;28;20014;-88
2023/09/11 00:20:53;;;;;;;11.80;8.63;;;25.30;73.10;;;;;;5010106;28;20033;-88
2023/09/11 00:23:19;;;;;;;11.38;8.45;;;25.30;73.20;;;;;;5008535;28;20108;-88
2023/09/11 00:25:45;;;;;;;12.55;8.57;;;25.30;73.10;;;;;;5008468;28;20132;-88
2023/09/11 00:28:10;;;;;;;12.45;8.50;;;25.30;73.20;;;;;;5002739;28;20034;-88
2023/09/11 00:30:37;;;;;;;13.20;9.52;;;25.30;73.30;;;;;;5009871;28;20037;-88
2023/09/11 00:33:03;;;;;;;16.17;9.93;;;25.20;73.50;;;;;;5010758;28;20029;-87
2023/09/11 00:35:28;;;;;;;13.82;10.02;;;25.20;73.60;;;;;;5005862;28;20038;-88
2023/09/11 00:37:54;;;;;;;12.95;8.98;;;25.20;73.70;;;;;;5006639;28;20027;-88
2023/09/11 00:40:19;;;;;;;11.10;8.40;;;25.10;73.60;;;;;;5009505;28;20032;-88
2023/09/11 00:42:45;;;;;;;12.05;9.02;;;25.20;73.70;;;;;;5009828;28;20052;-88
2023/09/11 00:45:12;;;;;;;9.70;8.35;;;25.10;73.70;;;;;;5009023;28;20048;-88
2023/09/11 00:47:39;;;;;;;14.02;9.85;;;25.10;73.70;;;;;;5006384;28;20080;-89
2023/09/11 00:50:07;;;;;;;11.88;9.10;;;25.10;73.90;;;;;;5011238;28;20017;-88
2023/09/11 00:52:32;;;;;;;14.38;9.40;;;25.10;74.10;;;;;;5007826;28;20490;-86
2023/09/11 00:54:59;;;;;;;10.38;8.45;;;25.10;74.10;;;;;;5021153;28;20018;-86
2023/09/11 00:57:26;;;;;;;11.23;9.00;;;25.10;74.00;;;;;;5013513;28;20029;-87
2023/09/11 00:59:51;;;;;;;14.85;9.32;;;25.10;74.00;;;;;;4998916;28;20034;-89
2023/09/11 01:02:20;;;;;;;12.27;8.73;;;25.10;73.90;;;;;;5010327;28;20118;-89
2023/09/11 01:04:46;;;;;;;11.48;8.75;;;25.10;73.80;;;;;;5011972;28;20187;-88
2023/09/11 01:07:12;;;;;;;12.32;8.05;;;25.10;73.90;;;;;;5002612;28;20521;-87
2023/09/11 01:09:39;;;;;;;13.82;10.10;;;25.10;73.90;;;;;;5004779;28;20080;-88
2023/09/11 01:12:05;;;;;;;13.30;9.07;;;25.00;74.20;;;;;;4998238;28;20026;-88
2023/09/11 01:14:31;;;;;;;17.13;10.73;;;25.00;74.10;;;;;;4997891;28;20050;-88
2023/09/11 01:17:24;;;;;;;14.95;11.00;;;25.00;74.10;;;;;;5008845;28;20037;-88
2023/09/11 01:20:19;;;;;;;13.90;9.65;;;25.00;74.20;;;;;;5007454;28;20486;-88
2023/09/11 01:23:23;;;;;;;14.38;9.68;;;25.00;74.30;;;;;;5029395;28;20076;-89
2023/09/11 01:26:03;;;;;;;13.00;9.48;;;25.00;74.30;;;;;;4991546;28;20413;-88
2023/09/11 01:28:58;;;;;;;11.45;8.77;;;24.90;74.50;;;;;;5005302;28;20030;-88
2023/09/11 01:31:26;;;;;;;12.52;9.15;;;24.90;74.40;;;;;;5001788;28;20030;-88
2023/09/11 01:33:59;;;;;;;11.82;9.45;;;24.90;74.50;;;;;;5010032;28;20530;-87
2023/09/11 01:36:24;;;;;;;12.60;9.10;;;24.90;74.50;;;;;;5012726;28;20038;-88
2023/09/11 01:38:50;;;;;;;10.43;8.55;;;24.90;74.50;;;;;;5021806;28;20017;-89
2023/09/11 01:41:17;;;;;;;12.80;9.52;;;24.90;74.50;;;;;;5016090;28;20061;-89
2023/09/11 01:43:45;;;;;;;12.45;9.57;;;24.80;74.60;;;;;;5023270;28;20464;-90
2023/09/11 01:46:12;;;;;;;15.65;9.77;;;24.80;74.80;;;;;;5013105;28;20026;-89
2023/09/11 01:48:40;;;;;;;13.30;9.52;;;24.80;74.80;;;;;;5014129;28;20120;-89
2023/09/11 01:51:06;;;;;;;13.90;9.90;;;24.80;74.80;;;;;;5015588;28;20029;-89
2023/09/11 01:53:32;;;;;;;12.52;9.55;;;24.80;74.90;;;;;;5018327;28;20022;-90
2023/09/11 01:55:58;;;;;;;15.65;9.90;;;24.70;75.10;;;;;;5011960;28;20071;-89
2023/09/11 01:58:24;;;;;;;13.02;10.25;;;24.70;75.90;;;;;;5006126;28;20026;-86
2023/09/11 02:00:50;;;;;;;13.95;9.80;;;24.60;75.30;;;;;;5008346;28;20018;-86
2023/09/11 02:03:19;;;;;;;13.15;9.70;;;24.60;75.30;;;;;;5009931;28;20104;-87
2023/09/11 02:05:44;;;;;;;13.93;10.77;;;24.60;75.40;;;;;;4998383;28;20021;-87
2023/09/11 02:08:10;;;;;;;11.48;8.43;;;24.60;75.50;;;;;;5016276;28;20112;-86
2023/09/11 02:10:35;;;;;;;12.55;8.98;;;24.60;75.60;;;;;;5016529;28;20049;-87
2023/09/11 02:13:01;;;;;;;13.27;9.20;;;24.60;75.60;;;;;;5002507;28;20140;-88
2023/09/11 02:15:27;;;;;;;13.77;9.77;;;24.60;75.70;;;;;;5035765;28;20493;-88
2023/09/11 02:17:52;;;;;;;16.27;11.15;;;24.60;75.80;;;;;;5013267;28;20060;-87
2023/09/11 02:20:18;;;;;;;15.93;9.52;;;24.50;75.80;;;;;;5012248;28;20034;-87
2023/09/11 02:22:43;;;;;;;15.90;11.45;;;24.50;75.80;;;;;;5011615;28;20076;-88
2023/09/11 02:25:09;;;;;;;13.05;9.63;;;24.50;76.00;;;;;;5007955;28;20239;-88
2023/09/11 02:27:35;;;;;;;14.30;9.73;;;24.50;76.00;;;;;;5007835;28;20026;-88
2023/09/11 02:30:00;;;;;;;12.57;9.68;;;24.60;76.00;;;;;;5012652;28;20046;-88
2023/09/11 02:32:26;;;;;;;12.98;9.45;;;24.50;75.90;;;;;;5008851;28;20421;-88
2023/09/11 02:34:51;;;;;;;11.05;8.63;;;24.50;76.00;;;;;;5010965;28;20033;-87
2023/09/11 02:37:17;;;;;;;10.32;8.25;;;24.50;76.00;;;;;;5005180;28;20026;-87
2023/09/11 02:39:43;;;;;;;10.18;7.75;;;24.50;75.90;;;;;;5010506;28;20028;-87
2023/09/11 02:42:08;;;;;;;11.95;8.80;;;24.50;75.90;;;;;;4995147;28;20030;-87
2023/09/11 02:44:34;;;;;;;9.20;7.70;;;24.50;75.90;;;;;;5001963;28;20053;-87
2023/09/11 02:46:59;;;;;;;13.25;8.68;;;24.50;75.90;;;;;;5003885;28;20049;-87
2023/09/11 02:49:25;;;;;;;12.45;8.13;;;24.50;75.90;;;;;;5009808;28;20026;-87
2023/09/11 02:51:50;;;;;;;14.30;9.20;;;24.50;75.80;;;;;;5006008;28;20509;-87
2023/09/11 02:54:16;;;;;;;12.57;8.68;;;24.50;75.80;;;;;;5011899;28;20053;-88
2023/09/11 02:56:41;;;;;;;12.48;9.68;;;24.40;75.80;;;;;;5017253;28;20030;-86
2023/09/11 02:59:07;;;;;;;12.13;9.80;;;24.40;75.90;;;;;;5025850;28;20026;-86
2023/09/11 03:01:33;;;;;;;12.07;8.63;;;24.40;75.90;;;;;;5019612;28;20080;-87
2023/09/11 03:03:58;;;;;;;11.43;9.02;;;24.40;75.90;;;;;;5010293;28;20069;-87
2023/09/11 03:06:24;;;;;;;10.70;8.18;;;24.50;75.90;;;;;;5008317;28;20045;-88
2023/09/11 03:08:49;;;;;;;10.32;8.32;;;24.50;75.90;;;;;;5011107;28;20550;-87
2023/09/11 03:11:15;;;;;;;11.48;8.30;;;24.40;75.80;;;;;;5006286;28;20378;-88
2023/09/11 03:13:41;;;;;;;12.55;8.85;;;24.40;75.70;;;;;;5010362;28;20022;-87
2023/09/11 03:16:10;;;;;;;14.77;9.68;;;24.40;75.70;;;;;;5012562;28;20330;-89
2023/09/11 03:18:37;;;;;;;11.65;9.52;;;24.40;75.80;;;;;;5013270;28;20045;-87
2023/09/11 03:21:05;;;;;;;9.98;7.95;;;24.40;76.00;;;;;;5011432;28;20199;-87
2023/09/11 03:23:31;;;;;;;11.70;9.63;;;24.30;76.00;;;;;;5010903;28;20083;-87
2023/09/11 03:25:57;;;;;;;10.70;8.77;;;24.30;76.00;;;;;;5003250;28;20014;-87
2023/09/11 03:28:28;;;;;;;10.25;8.60;;;24.30;76.00;;;;;;5015821;28;20395;-88
2023/09/11 03:30:54;;;;;;;12.40;8.68;;;24.30;76.10;;;;;;5020890;28;20441;-88
2023/09/11 03:33:19;;;;;;;12.38;8.48;;;24.30;76.10;;;;;;5007054;28;20018;-88
2023/09/11 03:35:46;;;;;;;11.55;9.65;;;24.30;76.10;;;;;;5011394;28;20026;-88
2023/09/11 03:38:13;;;;;;;10.82;8.88;;;24.20;76.10;;;;;;5008525;28;20395;-89
2023/09/11 03:40:39;;;;;;;11.10;8.07;;;24.20;76.20;;;;;;5006350;28;20127;-87
2023/09/11 03:43:05;;;;;;;11.75;9.32;;;24.20;76.30;;;;;;5009102;28;20068;-87
2023/09/11 03:45:30;;;;;;;11.43;9.43;;;24.20;76.30;;;;;;5000038;28;20030;-87
2023/09/11 03:47:56;;;;;;;12.90;10.00;;;24.10;76.40;;;;;;5025982;28;20514;-88
2023/09/11 03:50:21;;;;;;;15.95;9.80;;;24.10;76.70;;;;;;5009412;28;20025;-86
2023/09/11 03:52:47;;;;;;;12.70;8.73;;;24.00;76.90;;;;;;5003057;28;20026;-87
2023/09/11 03:55:13;;;;;;;14.35;10.63;;;24.00;76.90;;;;;;5006646;28;20024;-88
2023/09/11 03:57:39;;;;;;;12.88;9.63;;;24.00;77.00;;;;;;5003562;28;20117;-87
2023/09/11 04:00:08;;;;;;;12.13;9.73;;;24.00;77.10;;;;;;5007103;28;20072;-89
2023/09/11 04:02:34;;;;;;;11.85;10.00;;;24.00;77.20;;;;;;4997468;28;20034;-88
2023/09/11 04:04:59;;;;;;;16.23;10.50;;;23.90;77.10;;;;;;5012625;28;20041;-87
2023/09/11 04:07:25;;;;;;;11.18;9.13;;;23.90;77.20;;;;;;4997991;28;20537;-87
2023/09/11 04:09:50;;;;;;;14.98;11.07;;;23.90;77.20;;;;;;5006964;28;20363;-87
2023/09/11 04:12:17;;;;;;;13.18;10.32;;;23.90;77.90;;;;;;5004804;28;20037;-87
2023/09/11 04:14:43;;;;;;;15.68;10.65;;;23.80;77.50;;;;;;5003916;28;20281;-88
2023/09/11 04:17:10;;;;;;;13.73;10.63;;;23.80;77.80;;;;;;5006002;28;20040;-87
2023/09/11 04:19:39;;;;;;;13.48;10.55;;;23.80;77.90;;;;;;5004406;28;20022;-88
2023/09/11 04:22:06;;;;;;;15.80;10.80;;;23.70;77.90;;;;;;5012674;28;20501;-88
2023/09/11 04:24:32;;;;;;;13.70;10.75;;;23.70;78.00;;;;;;5007596;28;20071;-88
2023/09/11 04:26:58;;;;;;;13.88;10.70;;;23.70;78.00;;;;;;5009228;28;20168;-87
2023/09/11 04:29:24;;;;;;;15.40;11.05;;;23.70;78.20;;;;;;5010443;28;20113;-86
2023/09/11 04:31:50;;;;;;;13.98;11.45;;;23.70;78.50;;;;;;5008505;28;20022;-86
2023/09/11 04:34:16;;;;;;;15.88;10.63;;;23.60;78.40;;;;;;5001587;28;20025;-87
2023/09/11 04:36:42;;;;;;;14.20;11.23;;;23.60;78.50;;;;;;5005133;28;20388;-87
2023/09/11 04:39:08;;;;;;;12.05;10.75;;;23.60;78.60;;;;;;5006592;28;20030;-88
2023/09/11 04:41:33;;;;;;;15.15;11.80;;;23.50;78.80;;;;;;5014130;28;20029;-88
2023/09/11 04:43:59;;;;;;;16.13;12.32;;;23.50;79.10;;;;;;5022469;28;20028;-87
2023/09/11 04:46:24;;;;;;;13.10;11.05;;;23.50;79.40;;;;;;5007507;28;20450;-88
2023/09/11 04:48:50;;;;;;;16.30;11.75;;;23.40;79.40;;;;;;5007905;28;20512;-88
2023/09/11 04:51:15;;;;;;;13.15;11.02;;;23.50;79.40;;;;;;5009600;28;20109;-87
2023/09/11 04:53:41;;;;;;;14.57;11.10;;;23.40;79.40;;;;;;5006819;28;20018;-88
2023/09/11 04:56:07;;;;;;;17.77;12.65;;;23.50;79.50;;;;;;5004252;28;20022;-87
2023/09/11 04:58:32;;;;;;;14.68;12.50;;;23.40;79.70;;;;;;5024351;28;20040;-88
2023/09/11 05:00:58;;;;;;;18.27;13.70;;;23.30;79.90;;;;;;5007328;28;20486;-88
2023/09/11 05:03:24;;;;;;;17.75;13.48;;;23.30;80.30;;;;;;5030951;28;20529;-88
2023/09/11 05:05:50;;;;;;;15.60;11.82;;;23.30;80.50;;;;;;5014427;28;20069;-86
2023/09/11 05:08:15;;;;;;;12.93;10.25;;;23.30;80.60;;;;;;5010561;28;20382;-87
2023/09/11 05:10:45;;;;;;;13.45;11.63;;;23.30;80.40;;;;;;5006318;28;20018;-88
2023/09/11 05:13:11;;;;;;;15.63;11.30;;;23.30;80.30;;;;;;5012068;28;20156;-87
2023/09/11 05:15:37;;;;;;;12.90;10.52;;;23.30;80.30;;;;;;5012227;28;20217;-90
2023/09/11 05:18:03;;;;;;;15.25;12.02;;;23.40;80.20;;;;;;4998219;28;20139;-86
2023/09/11 05:20:30;;;;;;;14.63;11.82;;;23.40;80.20;;;;;;5008545;28;20078;-85
2023/09/11 05:22:56;;;;;;;12.50;10.32;;;23.30;80.30;;;;;;5013987;28;20030;-86
2023/09/11 05:25:22;;;;;;;14.48;12.05;;;23.40;80.30;;;;;;5020498;28;20045;-85
2023/09/11 05:27:48;;;;;;;15.80;12.35;;;23.30;80.30;;;;;;5022269;28;20018;-85
2023/09/11 05:30:14;;;;;;;13.60;11.60;;;23.30;80.50;;;;;;5014683;28;20041;-87
2023/09/11 05:32:40;;;;;;;12.25;10.95;;;23.30;80.60;;;;;;5008502;28;20048;-87
2023/09/11 05:35:07;;;;;;;15.63;12.23;;;23.30;80.60;;;;;;5009508;28;20119;-88
2023/09/11 05:44:49;;;;;;;17.15;11.90;;;23.50;80.10;;;;;;5011853;28;20098;-87
2023/09/11 05:47:15;;;;;;;19.73;12.35;;;23.70;79.90;;;;;;5007874;28;20550;-88
2023/09/11 05:49:40;;;;;;;13.88;12.38;;;24.20;79.30;;;;;;5008237;28;20113;-89
2023/09/11 05:52:06;;;;;;;13.25;11.55;;;24.80;77.90;;;;;;5005580;28;20117;-88
2023/09/11 05:54:33;;;;;;;12.80;10.18;;;25.30;76.30;;;;;;4999360;28;20029;-89
2023/09/11 05:57:01;;;;;;;13.40;11.60;;;25.70;74.90;;;;;;5004373;28;20087;-88
2023/09/11 05:59:26;;;;;;;11.35;9.25;;;26.10;74.40;;;;;;5005319;28;20047;-87
2023/09/11 06:01:52;;;;;;;13.18;10.30;;;26.70;72.40;;;;;;5006487;28;20053;-86
2023/09/11 06:04:17;;;;;;;14.98;11.02;;;27.20;71.10;;;;;;5008708;28;20024;-86
2023/09/11 06:06:43;;;;;;;14.85;10.20;;;27.70;69.80;;;;;;5007949;28;20054;-87
2023/09/11 06:09:09;;;;;;;11.57;9.50;;;28.20;68.50;;;;;;5008230;28;20131;-87
2023/09/11 06:11:35;;;;;;;11.98;9.27;;;28.70;67.10;;;;;;5002699;28;20030;-88
2023/09/11 06:14:01;;;;;;;12.55;10.30;;;29.10;66.00;;;;;;5000455;28;20018;-88
2023/09/11 06:16:26;;;;;;;13.30;9.23;;;29.50;65.00;;;;;;5004918;28;20093;-88
2023/09/11 06:18:53;;;;;;;16.38;11.05;;;29.80;64.00;;;;;;4999845;28;20030;-87
2023/09/11 06:21:18;;;;;;;11.60;8.35;;;30.00;63.30;;;;;;5008575;28;20030;-88
2023/09/11 06:23:44;;;;;;;13.43;9.73;;;30.20;62.90;;;;;;5018524;28;20502;-85
2023/09/11 06:26:10;;;;;;;11.57;8.82;;;30.50;62.10;;;;;;5020605;28;20141;-85
2023/09/11 06:28:36;;;;;;;10.32;7.93;;;31.00;61.20;;;;;;5007732;28;20117;-85
2023/09/11 06:31:02;;;;;;;16.40;9.75;;;31.10;60.20;;;;;;5017681;28;20046;-84
2023/09/11 06:33:27;;;;;;;14.20;9.30;;;31.10;60.10;;;;;;5008948;28;20120;-85
2023/09/11 06:35:54;;;;;;;13.30;9.18;;;31.30;59.40;;;;;;5013731;28;20022;-87
2023/09/11 06:38:20;;;;;;;16.30;9.25;;;31.70;58.80;;;;;;5007941;28;20121;-89
2023/09/11 06:40:48;;;;;;;12.93;8.85;;;32.10;57.80;;;;;;5007317;28;20136;-87
2023/09/11 06:43:14;;;;;;;14.63;9.90;;;32.40;56.80;;;;;;5011384;28;20474;-86
2023/09/11 06:45:41;;;;;;;9.73;7.93;;;32.60;55.60;;;;;;4999786;28;20041;-86
2023/09/11 06:48:10;;;;;;;13.40;8.95;;;32.50;55.80;;;;;;4999671;28;20550;-85
2023/09/11 06:50:35;;;;;;;11.35;8.57;;;32.00;55.40;;;;;;5005633;28;20049;-86
2023/09/11 06:53:01;;;;;;;11.68;8.55;;;32.00;55.70;;;;;;5016815;28;20130;-84
2023/09/11 06:55:26;;;;;;;11.65;8.90;;;31.90;55.40;;;;;;5002579;28;20076;-82
2023/09/11 06:58:00;;;;;;;14.80;9.30;;;31.80;55.00;;;;;;4997083;28;20105;-86
2023/09/11 07:00:37;;;;;;;10.57;7.85;;;31.70;54.70;;;;;;5006204;28;20038;-85
2023/09/11 07:03:02;;;;;;;9.23;6.90;;;31.30;55.40;;;;;;5005882;28;20045;-85
2023/09/11 07:05:28;;;;;;;12.65;8.90;;;30.80;56.60;;;;;;5010623;28;20040;-85
2023/09/11 07:07:54;;;;;;;10.50;8.30;;;30.30;56.80;;;;;;5003928;28;20496;-85
2023/09/11 07:10:19;;;;;;;14.15;11.20;;;30.00;57.90;;;;;;5010582;28;20032;-85
2023/09/11 07:12:46;;;;;;;12.27;8.82;;;29.60;57.40;;;;;;5013101;28;20022;-85
2023/09/11 07:15:11;;;;;;;15.00;10.48;;;29.20;58.50;;;;;;5006706;28;20030;-86
2023/09/11 07:17:37;;;;;;;12.88;10.45;;;28.90;59.10;;;;;;5006271;28;20026;-85
2023/09/11 07:20:05;;;;;;;10.80;8.20;;;28.50;59.90;;;;;;5003268;28;20123;-84
2023/09/11 07:22:30;;;;;;;14.15;8.80;;;28.20;60.60;;;;;;5014274;28;20040;-84
2023/09/11 07:24:56;;;;;;;11.75;8.60;;;28.10;61.10;;;;;;5019358;28;20025;-85
2023/09/11 07:27:22;;;;;;;9.57;7.40;;;28.00;61.50;;;;;;5014191;28;20049;-85
2023/09/11 07:29:49;;;;;;;12.88;10.82;;;27.90;62.00;;;;;;5005241;28;20032;-84
2023/09/11 07:32:15;;;;;;;9.75;7.65;;;27.90;61.90;;;;;;5008369;28;20048;-84
2023/09/11 07:34:41;;;;;;;9.93;7.95;;;27.70;62.40;;;;;;5011661;28;20022;-85
2023/09/11 07:37:07;;;;;;;8.88;6.70;;;27.60;62.60;;;;;;5007870;28;20037;-84
2023/09/11 07:39:32;;;;;;;9.50;7.10;;;27.70;62.90;;;;;;5010124;28;20022;-84
2023/09/11 07:41:59;;;;;;;8.27;6.32;;;27.60;62.60;;;;;;5019629;28;20036;-85
2023/09/11 07:44:24;;;;;;;11.75;7.30;;;27.70;62.80;;;;;;5009504;28;20026;-85
2023/09/11 07:46:50;;;;;;;9.57;7.90;;;27.50;62.40;;;;;;5011943;28;20466;-84
2023/09/11 07:49:16;;;;;;;10.88;7.65;;;27.50;62.40;;;;;;5010670;28;20022;-85
2023/09/11 07:51:41;;;;;;;11.52;8.50;;;27.40;62.50;;;;;;5012839;28;20038;-85
2023/09/11 07:54:07;;;;;;;10.93;8.30;;;27.20;62.40;;;;;;5007983;28;20093;-88
2023/09/11 07:56:33;;;;;;;10.43;8.40;;;27.10;62.80;;;;;;5001046;28;20500;-85
2023/09/11 07:59:00;;;;;;;12.65;9.25;;;27.00;62.90;;;;;;5017013;28;20363;-86
2023/09/11 08:01:26;;;;;;;9.18;7.55;;;27.00;63.00;;;;;;5011529;28;21821;-86
2023/09/11 08:03:52;;;;;;;10.52;7.32;;;27.00;63.30;;;;;;5011863;28;20034;-86
2023/09/11 08:06:18;;;;;;;10.20;8.60;;;27.10;63.40;;;;;;5010432;28;20113;-86
2023/09/11 08:08:44;;;;;;;11.45;7.75;;;27.10;63.20;;;;;;5013709;28;20072;-86
2023/09/11 08:11:15;;;;;;;10.52;7.93;;;27.00;63.30;;;;;;5016931;28;20026;-86
2023/09/11 08:13:40;;;;;;;11.25;8.52;;;27.10;63.60;;;;;;5023196;28;20029;-86
2023/09/11 08:16:06;;;;;;;10.52;7.85;;;27.10;63.50;;;;;;5007672;28;20034;-86
2023/09/11 08:18:32;;;;;;;10.38;7.13;;;27.00;63.80;;;;;;5003323;28;20018;-86
2023/09/11 08:20:58;;;;;;;11.07;7.22;;;27.10;64.10;;;;;;5012201;28;20116;-85
2023/09/11 08:23:23;;;;;;;11.85;9.20;;;27.30;64.30;;;;;;5010998;28;20030;-86
2023/09/11 08:25:49;;;;;;;11.57;7.65;;;27.30;63.90;;;;;;5009097;28;20022;-85
2023/09/11 08:28:14;;;;;;;12.43;8.32;;;27.30;64.00;;;;;;5011318;28;20116;-86
2023/09/11 08:30:40;;;;;;;14.60;11.23;;;27.30;63.90;;;;;;5012845;28;20512;-85
2023/09/11 08:33:06;;;;;;;11.02;9.15;;;27.20;63.60;;;;;;5021944;28;20029;-85
2023/09/11 08:35:31;;;;;;;9.63;7.93;;;26.90;63.90;;;;;;5018051;28;20025;-85
2023/09/11 08:37:57;;;;;;;10.77;7.75;;;26.90;64.40;;;;;;4998535;28;20030;-85
2023/09/11 08:40:28;;;;;;;12.07;9.15;;;27.00;64.60;;;;;;5004774;28;20030;-85
2023/09/11 08:42:55;;;;;;;11.05;8.10;;;27.10;64.60;;;;;;5005963;28;20490;-85
2023/09/11 08:45:20;;;;;;;11.45;9.85;;;27.10;64.60;;;;;;5009043;28;20080;-86
2023/09/11 08:47:48;;;;;;;11.75;8.77;;;27.20;64.40;;;;;;5009954;28;20517;-86
2023/09/11 08:50:16;;;;;;;9.88;8.07;;;27.30;64.50;;;;;;5009157;28;20032;-86
2023/09/11 08:52:42;;;;;;;11.55;8.43;;;27.40;64.60;;;;;;5014723;28;20496;-85
2023/09/11 08:55:18;;;;;;;12.93;8.85;;;27.40;64.60;;;;;;4999261;28;20025;-85
2023/09/11 08:57:46;;;;;;;10.70;8.00;;;27.40;64.50;;;;;;5004371;28;20025;-87
2023/09/11 09:00:13;;;;;;;8.52;7.13;;;27.40;65.20;;;;;;5004431;28;20502;-86
2023/09/11 09:02:39;;;;;;;9.85;6.90;;;27.50;64.50;;;;;;5008001;28;20026;-86
2023/09/11 09:05:06;;;;;;;11.32;7.68;;;27.60;64.60;;;;;;5005588;28;20116;-86
2023/09/11 09:07:32;;;;;;;11.60;7.85;;;27.70;64.50;;;;;;5007506;28;20022;-86
2023/09/11 09:09:59;;;;;;;12.05;8.25;;;27.70;64.40;;;;;;5004882;28;20033;-85
2023/09/11 09:12:26;;;;;;;11.38;7.47;;;27.70;64.40;;;;;;5007196;28;20109;-85
2023/09/11 09:14:52;;;;;;;9.75;7.13;;;27.60;64.30;;;;;;5008925;28;20105;-86
2023/09/11 09:17:17;;;;;;;11.85;7.32;;;27.70;64.40;;;;;;5005518;28;20117;-86
2023/09/11 09:19:43;;;;;;;9.05;6.93;;;27.80;64.40;;;;;;5006484;28;20031;-86
2023/09/11 09:22:10;;;;;;;7.72;5.97;;;27.80;64.10;;;;;;5005839;28;20489;-85
2023/09/11 09:24:45;;;;;;;8.85;7.45;;;27.90;64.00;;;;;;5003919;28;20033;-86
2023/09/11 09:27:11;;;;;;;7.93;6.60;;;28.00;64.50;;;;;;5002169;28;20099;-86
2023/09/11 09:29:38;;;;;;;8.45;6.45;;;28.10;63.70;;;;;;5007394;28;20022;-86
2023/09/11 09:32:05;;;;;;;9.65;6.72;;;28.10;63.60;;;;;;4998428;28;20108;-86
2023/09/11 09:34:32;;;;;;;10.63;7.00;;;28.20;63.50;;;;;;4998554;28;20030;-86
2023/09/11 09:36:58;;;;;;;8.77;6.25;;;28.20;63.20;;;;;;5005229;28;20199;-85
2023/09/11 09:39:39;;;;;;;8.50;6.30;;;28.30;63.10;;;;;;5019166;28;20247;-86
2023/09/11 09:42:07;;;;;;;8.05;5.82;;;28.30;63.00;;;;;;4999914;28;20529;-87
2023/09/11 09:44:40;;;;;;;7.45;6.40;;;28.50;62.90;;;;;;5004195;28;20033;-87
2023/09/11 09:47:13;;;;;;;9.63;6.60;;;28.60;62.80;;;;;;5005818;28;20021;-87
2023/09/11 09:49:57;;;;;;;8.63;6.40;;;28.60;62.50;;;;;;5013022;28;20041;-86
2023/09/11 09:52:28;;;;;;;8.43;6.07;;;28.70;62.10;;;;;;5004578;28;20061;-87
2023/09/11 09:54:59;;;;;;;10.48;6.07;;;28.60;61.80;;;;;;5007763;28;20022;-86
2023/09/11 09:57:26;;;;;;;8.07;6.28;;;28.60;61.70;;;;;;5017803;28;20505;-86
2023/09/11 09:59:58;;;;;;;12.38;5.60;;;28.70;61.50;;;;;;5002653;28;20036;-86
2023/09/11 10:02:34;;;;;;;8.38;6.25;;;28.70;61.30;;;;;;5011173;28;20029;-87
2023/09/11 10:05:05;;;;;;;9.32;5.30;;;28.80;61.10;;;;;;5006989;28;20113;-87
2023/09/11 10:07:42;;;;;;;8.90;6.28;;;28.80;61.00;;;;;;5014397;28;20070;-86
2023/09/11 10:10:26;;;;;;;7.50;5.25;;;28.80;60.70;;;;;;5007897;28;20085;-86
2023/09/11 10:13:06;;;;;;;6.63;4.93;;;28.90;60.60;;;;;;5010070;28;20023;-86
2023/09/11 10:15:37;;;;;;;7.55;5.20;;;29.00;60.40;;;;;;5008492;28;20100;-86
2023/09/11 10:18:04;;;;;;;6.00;5.10;;;29.10;60.00;;;;;;5009458;28;20026;-85
2023/09/11 10:20:31;;;;;;;7.55;4.80;;;29.20;60.00;;;;;;5011347;28;20164;-86
2023/09/11 10:25:47;;;;;;;6.72;4.80;;;29.30;59.90;;;;;;5012601;28;20037;-86
2023/09/11 10:28:37;;;;;;;6.55;4.57;;;29.40;59.80;;;;;;5010853;28;20030;-85
2023/09/11 10:31:21;;;;;;;8.68;5.10;;;29.50;59.30;;;;;;5009428;28;20142;-85
2023/09/11 10:33:55;;;;;;;6.32;4.47;;;29.50;58.40;;;;;;5013631;28;20033;-85
2023/09/11 10:36:22;;;;;;;7.38;4.30;;;29.50;58.60;;;;;;5008876;28;20034;-84
2023/09/11 10:38:52;;;;;;;6.88;4.18;;;29.60;58.80;;;;;;5026271;28;20129;-84
2023/09/11 10:41:18;;;;;;;5.97;4.47;;;29.70;58.20;;;;;;5006589;28;20033;-84
2023/09/11 10:43:45;;;;;;;6.50;4.25;;;29.70;57.60;;;;;;5006927;28;20053;-85
2023/09/11 10:46:30;;;;;;;6.75;4.40;;;29.80;57.70;;;;;;5003025;28;20064;-84
2023/09/11 10:48:58;;;;;;;6.63;4.55;;;29.80;57.50;;;;;;4999037;28;20034;-85
2023/09/11 10:51:25;;;;;;;8.88;4.72;;;29.80;56.90;;;;;;5000876;28;20026;-85
2023/09/11 10:53:51;;;;;;;8.70;4.50;;;29.80;56.70;;;;;;5024318;28;20474;-85
2023/09/11 10:56:17;;;;;;;6.55;4.68;;;29.80;56.60;;;;;;5001989;28;20026;-85
2023/09/11 10:58:42;;;;;;;6.28;4.40;;;29.90;56.80;;;;;;5003489;28;20481;-85
2023/09/11 11:01:13;;;;;;;7.95;4.70;;;29.90;56.60;;;;;;5013770;28;20560;-84
2023/09/11 11:03:41;;;;;;;5.82;4.40;;;29.90;56.50;;;;;;5002425;28;20026;-85
2023/09/11 11:06:12;;;;;;;6.05;4.10;;;30.00;56.40;;;;;;4995218;28;20329;-85
2023/09/11 11:08:40;;;;;;;5.53;3.95;;;30.00;56.00;;;;;;4997547;28;20061;-85
2023/09/11 11:11:24;;;;;;;6.80;3.92;;;30.10;56.00;;;;;;4999615;28;20026;-85
2023/09/11 11:14:10;;;;;;;5.32;3.70;;;30.20;55.70;;;;;;5006301;28;20029;-85
2023/09/11 11:16:39;;;;;;;6.63;3.97;;;30.20;55.80;;;;;;5001027;28;20038;-84
2023/09/11 11:19:05;;;;;;;5.35;4.00;;;30.30;55.40;;;;;;5003726;28;20441;-84
2023/09/11 11:21:38;;;;;;;4.75;3.90;;;30.40;55.20;;;;;;5001482;28;20383;-85
2023/09/11 11:24:05;;;;;;;7.90;3.97;;;30.50;54.50;;;;;;4998945;28;20121;-84
2023/09/11 11:26:35;;;;;;;7.70;4.50;;;30.40;54.00;;;;;;5001024;28;20025;-85
2023/09/11 11:29:01;;;;;;;5.73;3.97;;;30.50;54.20;;;;;;5005820;28;20040;-85
2023/09/11 11:31:27;;;;;;;6.82;4.20;;;30.60;54.20;;;;;;5000752;28;20283;-85
2023/09/11 11:33:58;;;;;;;6.78;4.00;;;30.70;54.00;;;;;;4998951;28;20502;-85
2023/09/11 11:36:27;;;;;;;6.68;4.00;;;30.70;53.80;;;;;;5004321;28;20038;-85
2023/09/11 11:38:54;;;;;;;7.72;4.55;;;30.70;53.80;;;;;;5018845;28;20325;-85
2023/09/11 11:41:20;;;;;;;5.45;3.90;;;30.80;53.70;;;;;;5005135;28;20025;-86
2023/09/11 11:43:46;;;;;;;8.60;4.25;;;30.90;53.80;;;;;;5013965;28;20164;-85
2023/09/11 11:46:13;;;;;;;6.40;3.92;;;31.00;53.30;;;;;;4997467;28;20111;-85
2023/09/11 11:48:40;;;;;;;8.18;4.45;;;31.10;53.20;;;;;;5007537;28;20021;-85
2023/09/11 11:51:05;;;;;;;5.63;3.60;;;31.20;53.40;;;;;;5008440;28;20455;-85
2023/09/11 11:53:32;;;;;;;6.55;3.60;;;31.20;52.80;;;;;;5018238;28;20022;-85
2023/09/11 11:56:00;;;;;;;7.18;3.90;;;31.30;52.90;;;;;;4999889;28;20117;-86
2023/09/11 11:58:26;;;;;;;5.63;3.80;;;31.30;52.50;;;;;;5006586;28;20046;-86
2023/09/11 12:01:00;;;;;;;6.13;3.70;;;31.40;52.50;;;;;;5006629;28;20545;-85
2023/09/11 12:03:28;;;;;;;6.53;3.95;;;31.50;52.60;;;;;;5012174;28;20030;-86
2023/09/11 12:05:54;;;;;;;8.32;4.07;;;31.60;51.80;;;;;;4999568;28;20030;-84
2023/09/11 12:08:21;;;;;;;6.13;3.80;;;31.60;52.10;;;;;;5006706;28;20103;-84
2023/09/11 12:10:50;;;;;;;6.22;4.43;;;31.60;52.10;;;;;;5011297;28;20029;-85
2023/09/11 12:13:22;;;;;;;5.47;3.70;;;31.70;51.80;;;;;;5008914;28;20081;-84
2023/09/11 12:15:59;;;;;;;5.68;3.22;;;31.70;51.70;;;;;;5008547;28;20022;-85
2023/09/11 12:18:26;;;;;;;5.53;3.55;;;31.70;52.50;;;;;;5013700;28;20431;-85
2023/09/11 12:21:05;;;;;;;6.22;4.10;;;31.80;52.20;;;;;;5003419;28;20036;-85
2023/09/11 12:23:31;;;;;;;5.20;3.78;;;31.80;52.30;;;;;;5019894;28;20025;-85
2023/09/11 12:25:58;;;;;;;5.57;4.00;;;31.90;52.50;;;;;;5004658;28;20018;-83
2023/09/11 12:28:53;;;;;;;6.15;4.88;;;31.90;52.70;;;;;;5018871;28;20029;-84
2023/09/11 12:31:19;;;;;;;7.70;4.60;;;32.00;52.80;;;;;;4992760;28;20041;-85
2023/09/11 12:33:52;;;;;;;6.03;4.40;;;32.00;52.80;;;;;;5005014;28;20378;-84
2023/09/11 12:36:21;;;;;;;9.15;4.95;;;32.10;52.90;;;;;;5022137;28;20057;-84
2023/09/11 12:38:50;;;;;;;6.45;4.13;;;32.20;52.50;;;;;;5023494;28;20030;-84
2023/09/11 12:41:17;;;;;;;7.60;4.47;;;32.30;52.70;;;;;;5000350;28;20537;-84
2023/09/11 12:43:44;;;;;;;5.90;4.10;;;32.20;52.10;;;;;;5003729;28;20044;-84
2023/09/11 12:46:13;;;;;;;9.45;5.05;;;32.20;51.90;;;;;;5006018;28;20034;-84
2023/09/11 12:48:43;;;;;;;6.13;3.90;;;32.20;51.30;;;;;;5004568;28;20037;-84
2023/09/11 12:51:09;;;;;;;4.32;3.63;;;32.20;51.20;;;;;;4999855;28;20023;-84